createdAt,value
2017-09-18T00:00:36.848Z,0
2017-09-18T00:01:45.690Z,0
2017-09-18T00:02:54.530Z,0
2017-09-18T00:04:03.369Z,0
2017-09-18T00:05:12.211Z,0
2017-09-18T00:06:21.201Z,0
2017-09-18T00:07:30.715Z,0
2017-09-18T00:08:39.890Z,0
2017-09-18T00:09:48.734Z,0
2017-09-18T00:10:57.575Z,0
2017-09-18T00:12:06.570Z,0
2017-09-18T00:13:15.409Z,0
2017-09-18T00:14:24.250Z,0
2017-09-18T00:15:33.090Z,0
2017-09-18T00:16:41.932Z,0
2017-09-18T00:17:50.824Z,0
2017-09-18T00:18:59.665Z,0
2017-09-18T00:20:08.509Z,0
2017-09-18T00:21:17.351Z,0
2017-09-18T00:22:26.523Z,0
2017-09-18T00:23:35.568Z,0
2017-09-18T00:24:44.411Z,0
2017-09-18T00:25:53.580Z,0
2017-09-18T00:27:02.423Z,0
2017-09-18T00:28:11.264Z,0
2017-09-18T00:29:20.260Z,0
2017-09-18T00:30:29.102Z,0
2017-09-18T00:31:37.946Z,0
2017-09-18T00:32:46.788Z,0
2017-09-18T00:33:55.632Z,0
2017-09-18T00:35:04.572Z,0
2017-09-18T00:36:13.416Z,0
2017-09-18T00:37:22.258Z,0
2017-09-18T00:38:31.100Z,0
2017-09-18T00:39:39.950Z,0
2017-09-18T00:40:48.942Z,0
2017-09-18T00:41:57.784Z,0
2017-09-18T00:43:06.624Z,0
2017-09-18T00:44:15.468Z,0
2017-09-18T00:45:24.305Z,0
2017-09-18T00:46:33.194Z,0
2017-09-18T00:47:42.036Z,0
2017-09-18T00:48:50.876Z,0
2017-09-18T00:49:59.717Z,0
2017-09-18T00:51:08.584Z,0
2017-09-18T00:52:17.546Z,0
2017-09-18T00:53:26.387Z,0
2017-09-18T00:54:35.229Z,0
2017-09-18T00:55:44.400Z,0
2017-09-18T00:56:53.238Z,0
2017-09-18T00:58:02.133Z,0
2017-09-18T00:59:10.973Z,0
2017-09-18T01:00:19.815Z,0
2017-09-18T01:01:28.656Z,0
2017-09-18T01:02:37.494Z,0
2017-09-18T01:03:46.483Z,0
2017-09-18T01:04:55.330Z,0
2017-09-18T01:06:04.170Z,0
2017-09-18T01:07:13.009Z,0
2017-09-18T01:08:22.187Z,0
2017-09-18T01:09:31.334Z,0
2017-09-18T01:10:40.171Z,0
2017-09-18T01:11:49.016Z,0
2017-09-18T01:12:58.520Z,0
2017-09-18T01:14:07.365Z,0
2017-09-18T01:15:16.354Z,0
2017-09-18T01:16:25.194Z,0
2017-09-18T01:17:34.034Z,0
2017-09-18T01:18:42.876Z,0
2017-09-18T01:19:51.721Z,0
2017-09-18T01:21:00.708Z,0
2017-09-18T01:22:09.554Z,0
2017-09-18T01:23:18.732Z,0
2017-09-18T01:24:27.568Z,0
2017-09-18T01:25:36.409Z,0
2017-09-18T01:26:45.549Z,0
2017-09-18T01:27:54.389Z,0
2017-09-18T01:29:03.230Z,0
2017-09-18T01:30:12.072Z,0
2017-09-18T01:31:20.912Z,0
2017-09-18T01:32:29.803Z,0
2017-09-18T01:33:38.642Z,0
2017-09-18T01:34:47.482Z,0
2017-09-18T01:35:56.323Z,0
2017-09-18T01:37:05.163Z,0
2017-09-18T01:38:14.159Z,0
2017-09-18T01:39:22.997Z,0
2017-09-18T01:40:31.837Z,0
2017-09-18T01:41:40.680Z,0
2017-09-18T01:42:49.521Z,0
2017-09-18T01:43:58.513Z,0
2017-09-18T01:45:07.353Z,0
2017-09-18T01:46:16.195Z,0
2017-09-18T01:47:25.035Z,0
2017-09-18T01:48:33.875Z,0
2017-09-18T01:49:43.217Z,0
2017-09-18T01:50:52.728Z,0
2017-09-18T01:52:01.568Z,0
2017-09-18T01:53:10.407Z,0
2017-09-18T01:54:19.246Z,0
2017-09-18T01:55:28.238Z,0
2017-09-18T01:56:37.412Z,0
2017-09-18T01:57:46.254Z,0
2017-09-18T01:58:55.093Z,0
2017-09-18T02:00:03.935Z,0
2017-09-18T02:01:12.776Z,0
2017-09-18T02:02:21.616Z,0
2017-09-18T02:03:30.453Z,0
2017-09-18T02:04:39.294Z,0
2017-09-18T02:05:48.136Z,0
2017-09-18T02:06:57.126Z,0
2017-09-18T02:08:05.966Z,0
2017-09-18T02:09:14.810Z,0
2017-09-18T02:10:23.981Z,0
2017-09-18T02:11:32.818Z,0
2017-09-18T02:12:42.245Z,0
2017-09-18T02:13:51.085Z,0
2017-09-18T02:14:59.925Z,0
2017-09-18T02:16:08.766Z,0
2017-09-18T02:17:17.606Z,0
2017-09-18T02:18:26.596Z,0
2017-09-18T02:19:35.433Z,0
2017-09-18T02:20:44.601Z,0
2017-09-18T02:21:53.447Z,0
2017-09-18T02:23:02.281Z,0
2017-09-18T02:24:11.505Z,0
2017-09-18T02:25:20.343Z,0
2017-09-18T02:26:29.181Z,0
2017-09-18T02:27:38.356Z,0
2017-09-18T02:28:47.199Z,0
2017-09-18T02:29:56.335Z,0
2017-09-18T02:31:05.178Z,0
2017-09-18T02:32:14.020Z,0
2017-09-18T02:33:22.860Z,0
2017-09-18T02:34:31.702Z,0
2017-09-18T02:35:40.638Z,0
2017-09-18T02:36:49.486Z,0
2017-09-18T02:37:58.327Z,0
2017-09-18T02:39:07.164Z,0
2017-09-18T02:40:16.003Z,0
2017-09-18T02:41:24.843Z,0
2017-09-18T02:42:33.682Z,0
2017-09-18T02:43:42.519Z,0
2017-09-18T02:44:51.359Z,0
2017-09-18T02:46:00.199Z,0
2017-09-18T02:47:09.089Z,0
2017-09-18T02:48:17.930Z,0
2017-09-18T02:49:26.771Z,0
2017-09-18T02:50:35.610Z,0
2017-09-18T02:51:44.447Z,0
2017-09-18T02:52:53.438Z,0
2017-09-18T02:54:02.279Z,0
2017-09-18T02:55:11.144Z,0
2017-09-18T02:56:19.963Z,0
2017-09-18T02:57:28.802Z,0
2017-09-18T02:58:37.637Z,0
2017-09-18T02:59:46.477Z,0
2017-09-18T03:00:55.318Z,0
2017-09-18T03:02:04.491Z,0
2017-09-18T03:03:13.331Z,0
2017-09-18T03:04:22.321Z,0
2017-09-18T03:05:31.163Z,0
2017-09-18T03:06:40.003Z,0
2017-09-18T03:07:48.842Z,0
2017-09-18T03:08:57.686Z,0
2017-09-18T03:10:06.527Z,0
2017-09-18T03:11:15.367Z,0
2017-09-18T03:12:24.208Z,0
2017-09-18T03:13:33.048Z,0
2017-09-18T03:14:41.886Z,0
2017-09-18T03:15:50.782Z,0
2017-09-18T03:17:00.282Z,0
2017-09-18T03:18:09.124Z,0
2017-09-18T03:19:17.963Z,0
2017-09-18T03:20:26.804Z,0
2017-09-18T03:21:35.646Z,0
2017-09-18T03:22:44.485Z,0
2017-09-18T03:23:53.328Z,0
2017-09-18T03:25:02.500Z,0
2017-09-18T03:26:11.337Z,0
2017-09-18T03:27:20.477Z,0
2017-09-18T03:28:29.315Z,0
2017-09-18T03:29:38.486Z,0
2017-09-18T03:30:47.659Z,0
2017-09-18T03:31:56.498Z,0
2017-09-18T03:33:05.493Z,0
2017-09-18T03:34:14.333Z,0
2017-09-18T03:35:23.172Z,0
2017-09-18T03:36:32.013Z,0
2017-09-18T03:37:40.856Z,0
2017-09-18T03:38:49.847Z,0
2017-09-18T03:39:58.689Z,0
2017-09-18T03:41:07.530Z,0
2017-09-18T03:42:16.370Z,0
2017-09-18T03:43:25.213Z,0
2017-09-18T03:44:34.202Z,0
2017-09-18T03:45:43.040Z,0
2017-09-18T03:46:52.219Z,0
2017-09-18T03:48:01.059Z,0
2017-09-18T03:49:09.899Z,0
2017-09-18T03:50:19.095Z,0
2017-09-18T03:51:27.916Z,0
2017-09-18T03:52:36.752Z,0
2017-09-18T03:53:45.595Z,0
2017-09-18T03:54:54.436Z,0
2017-09-18T03:56:03.376Z,0
2017-09-18T03:57:12.220Z,0
2017-09-18T03:58:21.059Z,0
2017-09-18T03:59:29.903Z,0
2017-09-18T04:00:38.746Z,0
2017-09-18T04:01:47.739Z,0
2017-09-18T04:02:56.580Z,0
2017-09-18T04:04:05.421Z,0
2017-09-18T04:05:14.260Z,0
2017-09-18T04:06:23.100Z,0
2017-09-18T04:07:32.044Z,0
2017-09-18T04:08:41.215Z,0
2017-09-18T04:09:50.055Z,0
2017-09-18T04:10:58.900Z,0
2017-09-18T04:12:07.741Z,0
2017-09-18T04:13:16.736Z,0
2017-09-18T04:14:25.577Z,0
2017-09-18T04:15:34.420Z,0
2017-09-18T04:16:43.259Z,0
2017-09-18T04:17:52.103Z,0
2017-09-18T04:19:01.243Z,0
2017-09-18T04:20:10.082Z,0
2017-09-18T04:21:18.927Z,0
2017-09-18T04:22:27.768Z,0
2017-09-18T04:23:36.610Z,0
2017-09-18T04:24:45.450Z,0
2017-09-18T04:25:54.293Z,0
2017-09-18T04:27:03.136Z,0
2017-09-18T04:28:11.981Z,0
2017-09-18T04:29:20.821Z,0
2017-09-18T04:30:29.995Z,0
2017-09-18T04:31:38.836Z,0
2017-09-18T04:32:47.676Z,0
2017-09-18T04:33:56.519Z,0
2017-09-18T04:35:05.694Z,0
2017-09-18T04:36:14.535Z,0
2017-09-18T04:37:23.376Z,0
2017-09-18T04:38:32.221Z,0
2017-09-18T04:39:41.066Z,0
2017-09-18T04:40:49.907Z,4
2017-09-18T04:41:58.947Z,4
2017-09-18T04:43:07.788Z,0
2017-09-18T04:44:16.633Z,4
2017-09-18T04:45:25.475Z,4
2017-09-18T04:46:34.315Z,4
2017-09-18T04:47:43.204Z,4
2017-09-18T04:48:52.044Z,4
2017-09-18T04:50:00.892Z,8
2017-09-18T04:51:09.737Z,8
2017-09-18T04:52:18.581Z,12
2017-09-18T04:53:27.525Z,12
2017-09-18T04:54:36.366Z,16
2017-09-18T04:55:45.206Z,16
2017-09-18T04:56:54.046Z,20
2017-09-18T04:58:02.889Z,24
2017-09-18T04:59:11.781Z,24
2017-09-18T05:00:20.624Z,32
2017-09-18T05:01:29.462Z,36
2017-09-18T05:02:38.305Z,40
2017-09-18T05:03:47.145Z,48
2017-09-18T05:04:55.984Z,52
2017-09-18T05:06:04.824Z,56
2017-09-18T05:07:13.661Z,64
2017-09-18T05:08:22.499Z,72
2017-09-18T05:09:31.340Z,76
2017-09-18T05:10:40.281Z,84
2017-09-18T05:11:49.123Z,92
2017-09-18T05:12:58.297Z,96
2017-09-18T05:14:07.135Z,108
2017-09-18T05:15:15.977Z,112
2017-09-18T05:16:24.871Z,120
2017-09-18T05:17:33.711Z,128
2017-09-18T05:18:42.552Z,140
2017-09-18T05:19:51.395Z,144
2017-09-18T05:21:00.238Z,152
2017-09-18T05:22:09.179Z,160
2017-09-18T05:23:18.021Z,168
2017-09-18T05:24:26.861Z,176
2017-09-18T05:25:35.706Z,192
2017-09-18T05:26:44.544Z,208
2017-09-18T05:27:53.483Z,224
2017-09-18T05:29:02.325Z,244
2017-09-18T05:30:11.167Z,260
2017-09-18T05:31:20.011Z,272
2017-09-18T05:32:28.937Z,284
2017-09-18T05:33:38.264Z,292
2017-09-18T05:34:47.172Z,304
2017-09-18T05:35:56.076Z,320
2017-09-18T05:37:05.022Z,336
2017-09-18T05:38:13.891Z,352
2017-09-18T05:39:22.820Z,364
2017-09-18T05:40:31.737Z,372
2017-09-18T05:41:40.632Z,372
2017-09-18T05:42:49.509Z,380
2017-09-18T05:43:58.469Z,384
2017-09-18T05:45:07.421Z,392
2017-09-18T05:46:16.311Z,408
2017-09-18T05:47:25.177Z,420
2017-09-18T05:48:34.061Z,436
2017-09-18T05:49:43.004Z,444
2017-09-18T05:50:52.037Z,460
2017-09-18T05:52:01.253Z,476
2017-09-18T05:53:10.151Z,492
2017-09-18T05:54:19.156Z,516
2017-09-18T05:55:28.052Z,532
2017-09-18T05:56:36.938Z,552
2017-09-18T05:57:45.869Z,572
2017-09-18T05:58:54.748Z,592
2017-09-18T06:00:03.628Z,616
2017-09-18T06:01:12.558Z,652
2017-09-18T06:02:21.477Z,700
2017-09-18T06:03:30.716Z,752
2017-09-18T06:04:39.812Z,804
2017-09-18T06:05:48.700Z,844
2017-09-18T06:06:57.644Z,872
2017-09-18T06:08:06.601Z,892
2017-09-18T06:09:15.482Z,912
2017-09-18T06:10:24.524Z,932
2017-09-18T06:11:33.434Z,956
2017-09-18T06:12:42.298Z,976
2017-09-18T06:13:51.210Z,992
2017-09-18T06:15:00.118Z,1016
2017-09-18T06:16:09.020Z,1036
2017-09-18T06:17:18.202Z,1052
2017-09-18T06:18:27.048Z,1060
2017-09-18T06:19:35.893Z,1080
2017-09-18T06:20:44.738Z,1128
2017-09-18T06:21:53.733Z,1180
2017-09-18T06:23:02.581Z,1220
2017-09-18T06:24:11.429Z,1248
2017-09-18T06:25:20.277Z,1268
2017-09-18T06:26:29.456Z,1280
2017-09-18T06:27:38.560Z,1284
2017-09-18T06:28:47.406Z,1300
2017-09-18T06:29:56.249Z,1332
2017-09-18T06:31:05.093Z,1372
2017-09-18T06:32:13.935Z,1412
2017-09-18T06:33:22.981Z,1452
2017-09-18T06:34:31.837Z,1496
2017-09-18T06:35:40.672Z,1532
2017-09-18T06:36:49.516Z,1552
2017-09-18T06:37:58.361Z,1568
2017-09-18T06:39:07.203Z,1580
2017-09-18T06:40:16.047Z,1604
2017-09-18T06:41:24.900Z,1656
2017-09-18T06:42:33.743Z,1700
2017-09-18T06:43:42.589Z,1736
2017-09-18T06:44:51.585Z,1772
2017-09-18T06:46:00.438Z,1812
2017-09-18T06:47:09.279Z,1848
2017-09-18T06:48:18.123Z,1896
2017-09-18T06:49:26.967Z,1936
2017-09-18T06:50:36.213Z,1976
2017-09-18T06:51:45.076Z,2008
2017-09-18T06:52:54.000Z,2052
2017-09-18T06:54:02.854Z,2100
2017-09-18T06:55:11.704Z,2148
2017-09-18T06:56:20.601Z,2208
2017-09-18T06:57:29.446Z,2272
2017-09-18T06:58:38.294Z,2352
2017-09-18T06:59:47.139Z,2432
2017-09-18T07:00:55.987Z,2500
2017-09-18T07:02:05.137Z,2544
2017-09-18T07:03:13.985Z,2576
2017-09-18T07:04:22.836Z,2596
2017-09-18T07:05:31.684Z,2628
2017-09-18T07:06:40.530Z,2672
2017-09-18T07:07:49.527Z,2740
2017-09-18T07:08:58.379Z,2752
2017-09-18T07:10:07.242Z,2804
2017-09-18T07:11:16.076Z,2856
2017-09-18T07:12:24.933Z,2936
2017-09-18T07:13:34.081Z,2964
2017-09-18T07:14:42.932Z,3024
2017-09-18T07:15:51.780Z,2976
2017-09-18T07:17:00.629Z,2940
2017-09-18T07:18:09.824Z,2880
2017-09-18T07:19:18.672Z,2828
2017-09-18T07:20:27.525Z,2844
2017-09-18T07:21:36.372Z,2780
2017-09-18T07:22:45.220Z,2672
2017-09-18T07:23:54.064Z,2488
2017-09-18T07:25:03.061Z,2348
2017-09-18T07:26:11.908Z,2296
2017-09-18T07:27:20.752Z,2300
2017-09-18T07:28:29.637Z,2344
2017-09-18T07:29:38.517Z,2320
2017-09-18T07:30:47.484Z,2292
2017-09-18T07:31:56.328Z,2316
2017-09-18T07:33:05.175Z,2304
2017-09-18T07:34:14.028Z,2204
2017-09-18T07:35:22.871Z,2108
2017-09-18T07:36:32.021Z,2032
2017-09-18T07:37:40.880Z,1984
2017-09-18T07:38:49.724Z,1904
2017-09-18T07:39:58.566Z,1848
2017-09-18T07:41:07.408Z,1840
2017-09-18T07:42:16.402Z,1860
2017-09-18T07:43:25.254Z,1896
2017-09-18T07:44:34.095Z,1964
2017-09-18T07:45:42.941Z,2072
2017-09-18T07:46:51.787Z,2212
2017-09-18T07:48:01.021Z,2396
2017-09-18T07:49:09.865Z,2616
2017-09-18T07:50:18.720Z,2816
2017-09-18T07:51:27.564Z,2996
2017-09-18T07:52:36.410Z,3112
2017-09-18T07:53:45.410Z,3168
2017-09-18T07:54:54.298Z,3196
2017-09-18T07:56:03.184Z,3216
2017-09-18T07:57:12.043Z,3316
2017-09-18T07:58:20.889Z,3400
2017-09-18T07:59:29.934Z,3452
2017-09-18T08:00:38.788Z,3424
2017-09-18T08:01:47.651Z,3344
2017-09-18T08:02:56.500Z,3216
2017-09-18T08:04:05.369Z,3040
2017-09-18T08:05:14.465Z,2716
2017-09-18T08:06:23.316Z,2500
2017-09-18T08:07:32.500Z,2332
2017-09-18T08:08:41.347Z,2280
2017-09-18T08:09:50.191Z,2284
2017-09-18T08:10:59.186Z,2276
2017-09-18T08:12:08.060Z,2272
2017-09-18T08:13:16.908Z,2320
2017-09-18T08:14:25.755Z,2420
2017-09-18T08:15:34.602Z,2528
2017-09-18T08:16:43.500Z,2692
2017-09-18T08:17:52.352Z,2740
2017-09-18T08:19:01.197Z,2776
2017-09-18T08:20:10.044Z,2800
2017-09-18T08:21:18.899Z,2744
2017-09-18T08:22:27.796Z,2756
2017-09-18T08:23:36.651Z,2808
2017-09-18T08:24:45.499Z,2868
2017-09-18T08:25:54.344Z,2900
2017-09-18T08:27:03.189Z,3000
2017-09-18T08:28:12.207Z,3212
2017-09-18T08:29:21.055Z,3196
2017-09-18T08:30:29.896Z,3156
2017-09-18T08:31:38.845Z,3076
2017-09-18T08:32:47.691Z,2320
2017-09-18T08:33:56.589Z,2168
2017-09-18T08:35:05.438Z,2120
2017-09-18T08:36:14.614Z,2216
2017-09-18T08:37:23.467Z,2496
2017-09-18T08:38:32.311Z,2784
2017-09-18T08:39:41.305Z,3100
2017-09-18T08:40:50.149Z,3236
2017-09-18T08:41:58.996Z,3188
2017-09-18T08:43:07.848Z,3080
2017-09-18T08:44:17.035Z,3176
2017-09-18T08:45:26.033Z,3472
2017-09-18T08:46:34.888Z,3828
2017-09-18T08:47:43.732Z,4084
2017-09-18T08:48:52.597Z,4252
2017-09-18T08:50:01.451Z,4396
2017-09-18T08:51:10.345Z,4564
2017-09-18T08:52:19.193Z,4868
2017-09-18T08:53:28.088Z,5120
2017-09-18T08:54:36.932Z,5348
2017-09-18T08:55:45.775Z,5548
2017-09-18T08:56:54.783Z,5780
2017-09-18T08:58:03.632Z,6192
2017-09-18T08:59:12.475Z,6596
2017-09-18T09:00:21.322Z,6864
2017-09-18T09:01:30.169Z,6980
2017-09-18T09:02:39.166Z,7180
2017-09-18T09:03:48.014Z,7192
2017-09-18T09:04:57.202Z,7004
2017-09-18T09:06:06.051Z,6468
2017-09-18T09:07:14.896Z,5800
2017-09-18T09:08:24.020Z,4984
2017-09-18T09:09:32.872Z,4364
2017-09-18T09:10:41.721Z,4196
2017-09-18T09:11:50.569Z,3964
2017-09-18T09:12:59.423Z,3688
2017-09-18T09:14:08.526Z,3536
2017-09-18T09:15:17.373Z,3380
2017-09-18T09:16:26.431Z,3188
2017-09-18T09:17:35.279Z,2884
2017-09-18T09:18:44.125Z,2528
2017-09-18T09:19:52.973Z,2180
2017-09-18T09:21:01.838Z,1904
2017-09-18T09:22:10.688Z,1712
2017-09-18T09:23:19.534Z,1656
2017-09-18T09:24:28.381Z,1716
2017-09-18T09:25:37.283Z,1868
2017-09-18T09:26:46.133Z,2004
2017-09-18T09:27:54.982Z,2124
2017-09-18T09:29:03.833Z,2280
2017-09-18T09:30:12.731Z,2612
2017-09-18T09:31:21.732Z,2940
2017-09-18T09:32:30.639Z,3208
2017-09-18T09:33:39.490Z,3360
2017-09-18T09:34:48.344Z,3420
2017-09-18T09:35:57.222Z,3620
2017-09-18T09:37:06.071Z,3912
2017-09-18T09:38:14.918Z,4464
2017-09-18T09:39:23.768Z,5024
2017-09-18T09:40:32.614Z,5416
2017-09-18T09:41:41.796Z,5692
2017-09-18T09:42:50.995Z,5776
2017-09-18T09:43:59.848Z,5512
2017-09-18T09:45:08.700Z,5212
2017-09-18T09:46:17.595Z,4684
2017-09-18T09:47:26.847Z,4076
2017-09-18T09:48:35.695Z,3660
2017-09-18T09:49:44.540Z,3528
2017-09-18T09:50:53.384Z,3612
2017-09-18T09:52:02.339Z,3864
2017-09-18T09:53:11.185Z,4148
2017-09-18T09:54:20.348Z,4420
2017-09-18T09:55:29.198Z,4568
2017-09-18T09:56:38.040Z,4596
2017-09-18T09:57:46.889Z,4520
2017-09-18T09:58:55.734Z,4628
2017-09-18T10:00:04.633Z,5016
2017-09-18T10:01:13.814Z,5556
2017-09-18T10:02:22.678Z,6128
2017-09-18T10:03:31.853Z,6588
2017-09-18T10:04:40.707Z,7000
2017-09-18T10:05:49.857Z,7068
2017-09-18T10:06:58.701Z,6908
2017-09-18T10:08:07.550Z,6404
2017-09-18T10:09:16.397Z,6660
2017-09-18T10:10:25.251Z,6592
2017-09-18T10:11:34.250Z,6400
2017-09-18T10:12:43.095Z,6856
2017-09-18T10:13:51.940Z,6868
2017-09-18T10:15:00.786Z,6824
2017-09-18T10:16:09.632Z,6724
2017-09-18T10:17:18.883Z,6332
2017-09-18T10:18:27.730Z,6648
2017-09-18T10:19:36.576Z,6712
2017-09-18T10:20:45.426Z,6732
2017-09-18T10:21:54.280Z,6632
2017-09-18T10:23:03.177Z,6528
2017-09-18T10:24:12.027Z,6380
2017-09-18T10:25:20.875Z,6280
2017-09-18T10:26:30.054Z,6328
2017-09-18T10:27:38.899Z,6608
2017-09-18T10:28:47.893Z,7440
2017-09-18T10:29:56.740Z,8232
2017-09-18T10:31:05.583Z,8368
2017-09-18T10:32:14.428Z,8252
2017-09-18T10:33:23.275Z,8408
2017-09-18T10:34:32.223Z,8448
2017-09-18T10:35:41.075Z,7520
2017-09-18T10:36:49.927Z,7948
2017-09-18T10:37:58.782Z,7568
2017-09-18T10:39:07.629Z,7420
2017-09-18T10:40:16.732Z,8008
2017-09-18T10:41:25.579Z,9256
2017-09-18T10:42:34.428Z,10008
2017-09-18T10:43:43.275Z,9364
2017-09-18T10:44:52.122Z,9352
2017-09-18T10:46:01.461Z,10560
2017-09-18T10:47:10.311Z,10924
2017-09-18T10:48:19.171Z,10528
2017-09-18T10:49:28.028Z,11452
2017-09-18T10:50:36.877Z,11252
2017-09-18T10:51:45.875Z,10752
2017-09-18T10:52:55.056Z,11204
2017-09-18T10:54:03.916Z,9968
2017-09-18T10:55:12.764Z,10108
2017-09-18T10:56:21.613Z,8348
2017-09-18T10:57:30.612Z,6836
2017-09-18T10:58:39.461Z,5352
2017-09-18T10:59:48.312Z,6160
2017-09-18T11:00:57.182Z,8408
2017-09-18T11:02:06.365Z,10236
2017-09-18T11:03:15.695Z,7540
2017-09-18T11:04:24.547Z,5924
2017-09-18T11:05:33.396Z,6304
2017-09-18T11:06:42.242Z,6600
2017-09-18T11:07:51.090Z,7084
2017-09-18T11:09:00.088Z,8108
2017-09-18T11:10:08.938Z,8088
2017-09-18T11:11:17.785Z,7652
2017-09-18T11:12:26.632Z,5424
2017-09-18T11:13:35.481Z,5300
2017-09-18T11:14:44.758Z,5556
2017-09-18T11:15:53.606Z,5956
2017-09-18T11:17:02.451Z,5700
2017-09-18T11:18:11.303Z,5300
2017-09-18T11:19:20.149Z,6148
2017-09-18T11:20:29.146Z,7048
2017-09-18T11:21:37.994Z,6956
2017-09-18T11:22:46.842Z,6880
2017-09-18T11:23:55.686Z,6388
2017-09-18T11:25:04.533Z,6248
2017-09-18T11:26:13.534Z,6440
2017-09-18T11:27:22.390Z,6356
2017-09-18T11:28:31.241Z,6336
2017-09-18T11:29:40.090Z,6484
2017-09-18T11:30:48.939Z,7200
2017-09-18T11:31:57.835Z,8900
2017-09-18T11:33:06.679Z,9972
2017-09-18T11:34:15.529Z,10348
2017-09-18T11:35:24.380Z,10300
2017-09-18T11:36:33.226Z,9832
2017-09-18T11:37:42.222Z,10704
2017-09-18T11:38:51.067Z,10768
2017-09-18T11:39:59.917Z,10036
2017-09-18T11:41:08.767Z,9656
2017-09-18T11:42:17.947Z,9644
2017-09-18T11:43:26.856Z,9680
2017-09-18T11:44:35.704Z,9640
2017-09-18T11:45:44.553Z,9160
2017-09-18T11:46:53.403Z,8812
2017-09-18T11:48:02.252Z,8696
2017-09-18T11:49:11.297Z,8892
2017-09-18T11:50:20.145Z,9396
2017-09-18T11:51:28.991Z,10348
2017-09-18T11:52:37.838Z,13316
2017-09-18T11:53:46.686Z,16352
2017-09-18T11:54:55.785Z,19840
2017-09-18T11:56:04.635Z,15696
2017-09-18T11:57:13.486Z,14872
2017-09-18T11:58:22.351Z,13532
2017-09-18T11:59:31.197Z,14368
2017-09-18T12:00:40.223Z,14572
2017-09-18T12:01:49.072Z,13496
2017-09-18T12:02:57.926Z,11920
2017-09-18T12:04:06.775Z,10468
2017-09-18T12:05:15.629Z,10396
2017-09-18T12:06:25.020Z,21248
2017-09-18T12:07:33.876Z,14784
2017-09-18T12:08:42.731Z,13252
2017-09-18T12:09:51.580Z,13308
2017-09-18T12:11:00.439Z,12168
2017-09-18T12:12:09.672Z,10608
2017-09-18T12:13:18.523Z,9464
2017-09-18T12:14:27.378Z,9252
2017-09-18T12:15:36.232Z,9372
2017-09-18T12:16:45.112Z,9212
2017-09-18T12:17:54.014Z,9120
2017-09-18T12:19:02.869Z,9268
2017-09-18T12:20:11.752Z,9396
2017-09-18T12:21:20.628Z,9188
2017-09-18T12:22:29.480Z,8604
2017-09-18T12:23:38.379Z,7996
2017-09-18T12:24:47.235Z,7692
2017-09-18T12:25:56.088Z,7688
2017-09-18T12:27:05.008Z,7708
2017-09-18T12:28:14.957Z,7260
2017-09-18T12:29:24.042Z,6608
2017-09-18T12:30:33.059Z,6152
2017-09-18T12:31:41.957Z,5248
2017-09-18T12:32:50.810Z,4220
2017-09-18T12:33:59.661Z,3776
2017-09-18T12:35:08.661Z,3908
2017-09-18T12:36:17.510Z,4036
2017-09-18T12:37:26.374Z,4936
2017-09-18T12:38:35.225Z,5424
2017-09-18T12:39:44.074Z,4440
2017-09-18T12:40:52.972Z,3444
2017-09-18T12:42:01.822Z,3696
2017-09-18T12:43:10.672Z,4376
2017-09-18T12:44:19.547Z,7512
2017-09-18T12:45:28.752Z,6256
2017-09-18T12:46:37.605Z,6352
2017-09-18T12:47:46.460Z,6132
2017-09-18T12:48:55.309Z,5928
2017-09-18T12:50:04.157Z,6308
2017-09-18T12:51:13.007Z,6588
2017-09-18T12:52:22.171Z,7872
2017-09-18T12:53:31.025Z,9740
2017-09-18T12:54:39.898Z,10488
2017-09-18T12:55:48.722Z,11276
2017-09-18T12:56:57.574Z,12052
2017-09-18T12:58:06.522Z,12544
2017-09-18T12:59:15.371Z,13036
2017-09-18T13:00:24.222Z,12936
2017-09-18T13:01:33.070Z,12536
2017-09-18T13:02:41.919Z,11932
2017-09-18T13:03:50.766Z,11380
2017-09-18T13:04:59.961Z,10776
2017-09-18T13:06:08.818Z,10028
2017-09-18T13:07:17.670Z,9420
2017-09-18T13:08:26.520Z,8852
2017-09-18T13:09:35.471Z,8348
2017-09-18T13:10:44.319Z,8028
2017-09-18T13:11:53.167Z,7924
2017-09-18T13:13:02.018Z,7616
2017-09-18T13:14:10.867Z,7364
2017-09-18T13:15:19.866Z,7172
2017-09-18T13:16:29.054Z,7220
2017-09-18T13:17:38.230Z,7328
2017-09-18T13:18:47.084Z,7640
2017-09-18T13:19:56.601Z,7924
2017-09-18T13:21:05.596Z,8232
2017-09-18T13:22:14.444Z,8468
2017-09-18T13:23:23.295Z,8700
2017-09-18T13:24:32.150Z,8964
2017-09-18T13:25:41.007Z,9148
2017-09-18T13:26:50.015Z,9872
2017-09-18T13:27:58.860Z,11032
2017-09-18T13:29:07.718Z,11696
2017-09-18T13:30:16.570Z,11404
2017-09-18T13:31:25.422Z,10720
2017-09-18T13:32:34.276Z,9324
2017-09-18T13:33:43.195Z,7920
2017-09-18T13:34:52.115Z,7628
2017-09-18T13:36:00.962Z,6536
2017-09-18T13:37:09.815Z,5336
2017-09-18T13:38:19.018Z,5512
2017-09-18T13:39:28.099Z,6464
2017-09-18T13:40:37.274Z,7624
2017-09-18T13:41:46.192Z,7800
2017-09-18T13:42:55.076Z,7776
2017-09-18T13:44:04.485Z,7888
2017-09-18T13:45:13.554Z,8848
2017-09-18T13:46:22.569Z,10508
2017-09-18T13:47:31.514Z,12140
2017-09-18T13:48:40.489Z,12096
2017-09-18T13:49:49.565Z,13880
2017-09-18T13:50:58.467Z,12828
2017-09-18T13:52:08.053Z,11560
2017-09-18T13:53:16.972Z,10304
2017-09-18T13:54:26.274Z,10812
2017-09-18T13:55:35.433Z,16736
2017-09-18T13:56:44.435Z,10804
2017-09-18T13:57:53.407Z,25120
2017-09-18T13:59:02.314Z,13128
2017-09-18T14:00:11.200Z,14312
2017-09-18T14:01:20.213Z,15388
2017-09-18T14:02:29.076Z,21056
2017-09-18T14:03:37.930Z,32960
2017-09-18T14:04:46.783Z,41344
2017-09-18T14:05:55.637Z,31424
2017-09-18T14:07:04.793Z,44576
2017-09-18T14:08:13.651Z,46144
2017-09-18T14:09:22.549Z,38784
2017-09-18T14:10:31.406Z,14584
2017-09-18T14:11:40.593Z,43808
2017-09-18T14:12:49.500Z,9072
2017-09-18T14:13:58.355Z,8208
2017-09-18T14:15:07.231Z,7248
2017-09-18T14:16:16.083Z,7072
2017-09-18T14:17:24.935Z,6740
2017-09-18T14:18:33.886Z,6544
2017-09-18T14:19:42.737Z,7812
2017-09-18T14:20:51.589Z,8960
2017-09-18T14:22:00.446Z,9248
2017-09-18T14:23:09.296Z,9736
2017-09-18T14:24:18.297Z,11104
2017-09-18T14:25:27.146Z,8372
2017-09-18T14:26:35.998Z,8828
2017-09-18T14:27:44.845Z,20800
2017-09-18T14:28:53.694Z,21440
2017-09-18T14:30:02.545Z,15648
2017-09-18T14:31:11.396Z,13804
2017-09-18T14:32:20.244Z,12652
2017-09-18T14:33:29.094Z,11468
2017-09-18T14:34:37.945Z,9536
2017-09-18T14:35:46.949Z,8120
2017-09-18T14:36:55.800Z,7060
2017-09-18T14:38:04.649Z,6084
2017-09-18T14:39:13.501Z,5764
2017-09-18T14:40:22.419Z,5140
2017-09-18T14:41:31.459Z,4580
2017-09-18T14:42:40.410Z,4256
2017-09-18T14:43:49.369Z,4436
2017-09-18T14:44:58.314Z,4372
2017-09-18T14:46:07.220Z,3900
2017-09-18T14:47:16.176Z,3380
2017-09-18T14:48:25.125Z,3340
2017-09-18T14:49:34.003Z,3332
2017-09-18T14:50:42.977Z,3128
2017-09-18T14:51:52.184Z,2948
2017-09-18T14:53:01.328Z,2812
2017-09-18T14:54:10.181Z,2712
2017-09-18T14:55:19.087Z,2720
2017-09-18T14:56:28.005Z,2780
2017-09-18T14:57:36.875Z,2908
2017-09-18T14:58:45.817Z,2856
2017-09-18T14:59:54.670Z,2812
2017-09-18T15:01:03.518Z,2720
2017-09-18T15:02:12.760Z,2740
2017-09-18T15:03:21.750Z,2912
2017-09-18T15:04:30.682Z,3128
2017-09-18T15:05:39.990Z,3284
2017-09-18T15:06:49.225Z,3280
2017-09-18T15:07:58.615Z,3204
2017-09-18T15:09:07.665Z,3152
2017-09-18T15:10:16.526Z,3120
2017-09-18T15:11:25.466Z,3040
2017-09-18T15:12:34.357Z,2888
2017-09-18T15:13:43.711Z,2724
2017-09-18T15:14:52.848Z,2564
2017-09-18T15:16:01.696Z,2424
2017-09-18T15:17:10.589Z,2328
2017-09-18T15:18:19.641Z,2264
2017-09-18T15:19:28.693Z,2188
2017-09-18T15:20:37.877Z,2112
2017-09-18T15:21:46.724Z,2072
2017-09-18T15:22:55.571Z,2076
2017-09-18T15:24:04.417Z,2124
2017-09-18T15:25:13.264Z,2168
2017-09-18T15:26:22.112Z,2200
2017-09-18T15:27:30.957Z,2212
2017-09-18T15:28:40.139Z,2200
2017-09-18T15:29:48.988Z,2180
2017-09-18T15:30:57.837Z,2144
2017-09-18T15:32:06.683Z,2116
2017-09-18T15:33:15.530Z,2112
2017-09-18T15:34:24.379Z,2148
2017-09-18T15:35:33.375Z,2168
2017-09-18T15:36:42.222Z,2156
2017-09-18T15:37:51.067Z,2124
2017-09-18T15:38:59.915Z,2100
2017-09-18T15:40:08.761Z,2112
2017-09-18T15:41:17.707Z,2152
2017-09-18T15:42:26.551Z,2196
2017-09-18T15:43:35.397Z,2236
2017-09-18T15:44:44.244Z,2268
2017-09-18T15:45:53.088Z,2268
2017-09-18T15:47:01.986Z,2260